Latest Coastal Weather Observations for Mandora

IDW60701

Issued at 5:52 pm WST Tuesday 4 August 2015 (issued every 10 minutes, with the page automatically refreshed every 10 minutes)

About coastal observations | Map of coastal stations | Coastal observations for WA | Marine services | Other Formats
Station Details ID: 004019 Name: MANDORA Lat: -19.74 Lon: 120.84 Height: 7.5 m
Data from the previous 72 hours. | See also: Recent months at Mandora
Date/Time
WST
Temp

°C
Wind Pressure Rain
since 9am
mm
Weather Cloud Vis
km
Sea
Height
m
Swell
Dir
 
Speed
knots
Gust
knots
hPa Trend Height
m
Period
s
Dir
04/05:30pm 27.7 ESE 6 8 1016.7 - 0.0 - - - - - - -
04/05:00pm 29.6 E 8 13 1016.6 - 0.0 - - - - - - -
04/04:30pm 30.3 ESE 9 15 1016.5 - 0.0 - - - - - - -
04/04:00pm 30.5 SE 10 16 1016.4 - 0.0 - - - - - - -
04/03:30pm 30.9 ESE 10 15 1016.4 - 0.0 - - - - - - -
04/03:00pm 31.0 SE 9 17 1016.3 - 0.0 - - - - - - -
04/02:30pm 31.3 SE 10 19 1016.6 - 0.0 - - - - - - -
04/02:00pm 31.6 E 10 17 1016.8 - 0.0 - - - - - - -
04/01:30pm 31.1 E 10 17 1017.1 - 0.0 - - - - - - -
04/01:00pm 31.1 E 10 19 1017.4 - 0.0 - - - - - - -
04/12:30pm 29.9 ESE 12 20 1017.7 - 0.0 - - - - - - -
04/12:00pm 30.0 ESE 13 22 1018.3 - 0.0 - - - - - - -
04/11:30am 28.7 ESE 13 21 1018.9 - 0.0 - - - - - - -
04/11:00am 28.5 ESE 13 21 1019.4 - 0.0 - - - - - - -
04/10:30am 27.4 ESE 13 20 1019.9 - 0.0 - - - - - - -
04/10:00am 26.5 ESE 14 25 1020.1 - 0.0 - - - - - - -
04/09:30am 25.2 ESE 15 26 1020.3 - 0.0 - - - - - - -
04/09:24am 24.8 ESE 16 26 1020.4 - 0.0 - - - - - - -
04/09:00am 23.7 ESE 16 24 1020.3 - 0.0 - - - - - - -
04/08:42am 22.5 SE 16 26 1020.3 - 0.0 - - - - - - -
04/08:30am 21.7 ESE 13 23 1020.4 - 0.0 - - - - - - -
04/08:14am 20.8 SE 15 26 1020.5 - 0.0 - - - - - - -
04/08:00am 20.3 SE 13 22 - - 0.0 - - - - - - -
04/07:30am 19.1 SE 12 19 1020.6 - 0.0 - - - - - - -
04/07:00am 18.3 SE 11 18 1020.3 - 0.0 - - - - - - -
04/06:30am 17.9 SE 10 16 1020.1 - 0.0 - - - - - - -
04/06:00am 18.4 SE 10 16 1019.8 - 0.0 - - - - - - -
04/05:30am 18.8 SE 10 16 1019.5 - 0.0 - - - - - - -
04/05:00am 19.1 SE 10 15 1019.2 - 0.0 - - - - - - -
04/04:30am 19.4 SE 9 15 1019.0 - 0.0 - - - - - - -
04/04:00am 19.9 SE 9 13 1018.9 - 0.0 - - - - - - -
04/03:30am 19.9 SE 8 16 1018.9 - 0.0 - - - - - - -
04/03:00am 20.4 SE 9 14 1018.7 - 0.0 - - - - - - -
04/02:30am 20.7 SE 9 14 1018.7 - 0.0 - - - - - - -
04/02:00am 21.2 SE 10 16 1018.8 - 0.0 - - - - - - -
04/01:30am 21.5 SE 10 15 1018.9 - 0.0 - - - - - - -
04/01:00am 21.7 SE 9 14 1019.0 - 0.0 - - - - - - -
04/12:30am 22.2 SE 10 16 1019.2 - 0.0 - - - - - - -
04/12:00am 22.8 SE 11 19 1019.5 - 0.0 - - - - - - -
 
Date/Time
WST
Temp

°C
Wind Pressure Rain
since 9am
mm
Weather Cloud Vis
km
Sea
Height
m
Swell
Dir
 
Speed
knots
Gust
knots
hPa Trend Height
m
Period
s
Dir
03/11:30pm 22.8 SSE 9 16 1019.6 - 0.0 - - - - - - -
03/11:00pm 23.1 SSE 10 15 1019.8 - 0.0 - - - - - - -
03/10:30pm 23.4 SSE 10 16 1019.7 - 0.0 - - - - - - -
03/10:00pm 23.7 SSE 9 17 1019.6 - 0.0 - - - - - - -
03/09:30pm 24.2 SSE 10 15 1019.4 - 0.0 - - - - - - -
03/09:00pm 24.4 SSE 9 14 1019.3 - 0.0 - - - - - - -
03/08:30pm 24.0 SSE 8 13 1019.1 - 0.0 - - - - - - -
03/08:00pm 24.0 SSE 8 11 1018.9 - 0.0 - - - - - - -
03/07:30pm 24.8 SSE 7 10 1018.6 - 0.0 - - - - - - -
03/07:00pm 26.1 SSE 7 10 1018.3 - 0.0 - - - - - - -
03/06:30pm 26.9 SE 8 12 1018.0 - 0.0 - - - - - - -
03/06:00pm 27.5 SE 7 11 1017.7 - 0.0 - - - - - - -
03/05:30pm 28.7 SE 8 13 1017.3 - 0.0 - - - - - - -
03/05:00pm 30.0 ESE 10 17 1016.9 - 0.0 - - - - - - -
03/04:30pm 30.7 SE 11 19 1016.8 - 0.0 - - - - - - -
03/04:00pm 31.4 SE 12 20 1016.7 - 0.0 - - - - - - -
03/03:30pm 31.3 SE 13 19 1016.6 - 0.0 - - - - - - -
03/03:00pm 31.6 SE 13 23 1016.8 - 0.0 - - - - - - -
03/02:30pm 31.4 SE 15 29 1016.8 - 0.0 - - - - - - -
03/02:00pm 31.1 SE 15 25 1017.1 - 0.0 - - - - - - -
03/01:53pm 30.9 SE 15 25 1017.1 - 0.0 - - - - - - -
03/01:30pm 31.4 ESE 14 22 1017.4 - 0.0 - - - - - - -
03/01:00pm 30.6 SE 15 25 1018.0 - 0.0 - - - - - - -
03/12:30pm 30.3 ESE 15 25 1018.6 - 0.0 - - - - - - -
03/12:00pm 29.8 ESE 15 28 1019.1 - 0.0 - - - - - - -
03/11:30am 29.2 ESE 16 26 1019.5 - 0.0 - - - - - - -
03/11:00am 28.4 SE 16 26 1020.0 - 0.0 - - - - - - -
03/10:30am 27.5 SE 16 28 1020.3 - 0.0 - - - - - - -
03/10:01am 26.2 ESE 18 28 1020.6 - 0.0 - - - - - - -
03/10:00am 26.3 ESE 19 28 1020.6 - 0.0 - - - - - - -
03/09:30am 25.5 ESE 19 29 1020.7 - 0.0 - - - - - - -
03/09:15am 24.9 SE 16 26 1020.7 - 0.0 - - - - - - -
03/09:00am 24.5 ESE 16 24 1020.6 - 0.0 - - - - - - -
03/08:30am 23.2 SE 17 27 1020.3 - 0.0 - - - - - - -
03/08:24am 22.9 SE 17 27 1020.3 - 0.0 - - - - - - -
03/08:00am 22.0 SE 14 22 1020.1 - 0.0 - - - - - - -
03/07:30am 21.0 SE 15 22 1019.7 - 0.0 - - - - - - -
03/07:00am 20.3 SE 12 20 1019.4 - 0.0 - - - - - - -
03/06:30am 20.0 SE 12 18 1018.7 - 0.0 - - - - - - -
03/06:00am 20.4 SE 13 20 1018.4 - 0.0 - - - - - - -
03/05:30am 20.7 SE 13 21 1018.1 - 0.0 - - - - - - -
03/05:00am 21.1 SE 12 19 1017.9 - 0.0 - - - - - - -
03/04:30am 21.4 SE 12 19 1017.8 - 0.0 - - - - - - -
03/04:00am 21.8 SE 12 20 1017.7 - 0.0 - - - - - - -
03/03:30am 22.1 SE 12 19 1017.7 - 0.0 - - - - - - -
03/03:00am 22.3 SE 11 17 1017.6 - 0.0 - - - - - - -
03/02:30am 22.6 SE 11 19 1017.4 - 0.0 - - - - - - -
03/02:00am 23.1 SE 10 18 1017.4 - 0.0 - - - - - - -
03/01:30am 23.4 SE 10 17 1017.4 - 0.0 - - - - - - -
03/01:00am 23.3 SE 9 14 1017.6 - 0.0 - - - - - - -
03/12:30am 21.4 SSE 7 10 1017.8 - 0.0 - - - - - - -
03/12:00am 21.4 SSE 6 8 1017.8 - 0.0 - - - - - - -
 
Date/Time
WST
Temp

°C
Wind Pressure Rain
since 9am
mm
Weather Cloud Vis
km
Sea
Height
m
Swell
Dir
 
Speed
knots
Gust
knots
hPa Trend Height
m
Period
s
Dir
02/11:30pm 23.7 SSE 7 10 1017.9 - 0.0 - - - - - - -
02/11:00pm 22.5 SSE 4 6 1018.2 - 0.0 - - - - - - -
02/10:30pm 22.2 SSE 6 8 1018.6 - 0.0 - - - - - - -
02/10:00pm 22.5 S 8 11 1018.4 - 0.0 - - - - - - -
02/09:30pm 20.9 S 6 8 1018.3 - 0.0 - - - - - - -
02/09:00pm 20.9 SSW 6 7 1018.1 - 0.0 - - - - - - -
02/08:30pm 21.1 SSW 6 7 1017.9 - 0.0 - - - - - - -
02/08:00pm 21.6 SSW 6 6 1017.7 - 0.0 - - - - - - -
02/07:30pm 21.8 SSW 6 7 1017.5 - 0.0 - - - - - - -
02/07:00pm 22.3 SW 6 7 1017.2 - 0.0 - - - - - - -
02/06:30pm 22.7 WSW 4 5 1016.9 - 0.0 - - - - - - -
02/06:00pm 24.9 W 5 6 1016.6 - 0.0 - - - - - - -
02/05:30pm 27.3 WNW 5 6 1016.3 - 0.0 - - - - - - -
02/05:00pm 29.8 WNW 5 8 1016.0 - 0.0 - - - - - - -
02/04:30pm 30.6 NW 7 9 1015.9 - 0.0 - - - - - - -
02/04:00pm 31.8 NW 7 9 1015.9 - 0.0 - - - - - - -
02/03:30pm 31.8 NW 7 9 1015.8 - 0.0 - - - - - - -
02/03:00pm 32.2 N 8 11 1015.8 - 0.0 - - - - - - -
02/02:30pm 32.2 NNW 8 11 1015.9 - 0.0 - - - - - - -
02/02:00pm 31.8 NW 7 11 1016.2 - 0.0 - - - - - - -
02/01:30pm 32.8 ENE 4 7 1016.3 - 0.0 - - - - - - -
02/01:00pm 33.1 ESE 5 13 1016.4 - 0.0 - - - - - - -
02/12:30pm 32.9 E 6 10 1016.9 - 0.0 - - - - - - -
02/12:00pm 31.7 ENE 8 13 1017.4 - 0.0 - - - - - - -
02/11:30am 32.0 ESE 6 12 1017.8 - 0.0 - - - - - - -
02/11:00am 30.1 E 6 9 1018.2 - 0.0 - - - - - - -
02/10:30am 27.9 E 5 10 1018.5 - 0.0 - - - - - - -
02/10:00am 25.5 ESE 5 9 1018.8 - 0.0 - - - - - - -
02/09:30am 21.1 ESE 7 12 1018.9 - 0.0 - - - - - - -
02/09:00am 19.2 ESE 4 7 1019.0 - 0.2 - - - - - - -
02/08:30am 18.4 E 3 5 1018.6 - 0.2 - - - - - - -
02/08:00am 18.0 ESE 4 6 1018.5 - 0.2 - - - - - - -
02/07:30am 17.8 SE 4 5 1018.0 - 0.2 - - - - - - -
02/07:00am 17.7 ESE 3 5 1017.5 - 0.0 - - - - - - -
02/06:30am 17.4 SSE 6 8 1017.2 - 0.0 - - - - - - -
02/06:00am 17.1 SE 4 6 1016.8 - 0.0 - - - - - - -
02/05:30am 17.1 SSE 5 8 1016.4 - 0.0 - - - - - - -
02/05:00am 17.7 SSE 4 7 1016.2 - 0.0 - - - - - - -
02/04:30am 17.2 S 4 5 1015.9 - 0.0 - - - - - - -
02/04:00am 17.6 SSW 5 6 1015.9 - 0.0 - - - - - - -
02/03:30am 17.3 SSW 4 5 1016.0 - 0.0 - - - - - - -
02/03:00am 16.9 SW 4 5 1016.2 - 0.0 - - - - - - -
02/02:30am 16.5 W 5 6 1016.2 - 0.0 - - - - - - -
02/02:00am 16.3 WSW 4 5 1016.5 - 0.0 - - - - - - -
02/01:30am 16.3 SW 4 5 1016.7 - 0.0 - - - - - - -
02/01:00am 15.1 S 4 5 1016.8 - 0.0 - - - - - - -
02/12:30am 14.7 CALM 0 4 1017.0 - 0.0 - - - - - - -
02/12:00am 14.6 CALM 0 0 1017.1 - 0.0 - - - - - - -
 
Date/Time
WST
Temp

°C
Wind Pressure Rain
since 9am
mm
Weather Cloud Vis
km
Sea
Height
m
Swell
Dir
 
Speed
knots
Gust
knots
hPa Trend Height
m
Period
s
Dir
01/11:30pm 14.5 CALM 0 0 1017.2 - 0.0 - - - - - - -
01/11:00pm 14.8 CALM 0 0 1017.3 - 0.0 - - - - - - -
01/10:30pm 15.4 CALM 0 0 1017.5 - 0.0 - - - - - - -
01/10:00pm 15.5 CALM 0 3 1017.6 - 0.0 - - - - - - -
01/09:30pm 16.1 WSW 3 4 1017.5 - 0.0 - - - - - - -
01/09:00pm 16.7 SW 4 4 1017.3 - 0.0 - - - - - - -
01/08:30pm 16.6 SW 4 5 1017.2 - 0.0 - - - - - - -
01/08:00pm 16.6 SW 4 4 1017.1 - 0.0 - - - - - - -
01/07:30pm 16.4 CALM 0 0 1016.7 - 0.0 - - - - - - -
01/07:00pm 18.2 NW 3 3 1016.4 - 0.0 - - - - - - -
01/06:30pm 19.1 N 3 4 1015.9 - 0.0 - - - - - - -
01/06:00pm 20.2 NW 4 4 1015.6 - 0.0 - - - - - - -

Other Formats:

Comma delimited format used in spreadsheet applications
http://www.bom.gov.au/fwo/IDW60701/IDW60701.94200.axf

JavaScript Object Notation format (JSON) in row-major order
http://www.bom.gov.au/fwo/IDW60701/IDW60701.94200.json